Disclaimer

Please do not use the information listed here in-flight or in-navigation, as they are not provided to us by the airports but are provided by volunteers, so they might be outdated.

Search


Regions


Airport information page

Radio informations:
Tower (TWR) - 119.7 MHz
RDO - 8894 MHz

Airport informations:
Latitude: 28° 03' 05.58" N
Longitude: 009° 38' 34.48" E
Elevation: 1847 feet - 563 meters
Operating hours: N/A
Operating agency: Civil government, landing fees and diplomatic clearance may be required
Timezone: UTC+1
Fuel: Jet A1, without icing nhibitor.

100/130 octane gasoline, leaded, MIL-L-5572F (GREEN)

Runway information:
05/23 - 9843 x 148 feet< - >3000 x 45 meters
15/33 - 7218 x 98 feet< - >2200 x 30 meters

Recent METARs:
DAUZ 131800Z 09010KT 6000 NSC 19/04 Q1021
DAUZ 131900Z 08010KT 6000 NSC 18/05 Q1021
DAUZ 131900Z 08010KT 6000 NSC 18/05 Q1021

Airport on the map: